Time;durP1;ratioP1;P1;durP2;ratioP2;P2;SDS_P1;SDS_P2;PMS_P1;PMS_P2;Temp;Humidity;BMP_temperature;BMP_pressure;BME280_temperature;BME280_humidity;BME280_pressure;Samples;Min_cycle;Max_cycle;Signal;HPM_P1;HPM_P2
2023/01/23 00:01:36;;;;;;;222.53;16.07;;;;;-2.20;94878.00;;;;7400181;19;20629;-74
2023/01/23 00:04:04;;;;;;;80.40;14.43;;;;;-2.20;94876.00;;;;7402545;19;20117;-74
2023/01/23 00:06:45;;;;;;;85.43;15.93;;;;;-2.40;94881.00;;;;7398198;19;20180;-75
2023/01/23 00:09:19;;;;;;;57.53;13.00;;;;;-2.30;94879.00;;;;7399960;19;20478;-74
2023/01/23 00:11:46;;;;;;;107.10;14.37;;;;;-2.20;94878.00;;;;7402065;19;20137;-74
2023/01/23 00:14:20;;;;;;;108.67;13.20;;;;;-2.30;94878.00;;;;7401846;19;20131;-74
2023/01/23 00:16:54;;;;;;;135.20;14.17;;;;;-2.30;94871.00;;;;7402107;19;20548;-74
2023/01/23 00:19:28;;;;;;;214.97;18.60;;;;;-2.30;94871.00;;;;7401573;19;20133;-74
2023/01/23 00:22:04;;;;;;;136.47;15.40;;;;;-2.30;94874.00;;;;7399116;19;20156;-73
2023/01/23 00:24:40;;;;;;;235.37;20.03;;;;;-2.20;94875.00;;;;7401577;19;20614;-74
2023/01/23 00:27:08;;;;;;;460.50;28.57;;;;;-2.30;94869.00;;;;7400472;19;20236;-74
2023/01/23 00:29:42;;;;;;;127.77;14.00;;;;;-2.40;94868.00;;;;7401553;19;20620;-75
2023/01/23 00:32:09;;;;;;;349.87;21.53;;;;;-2.20;94857.00;;;;7402052;19;20593;-74
2023/01/23 00:34:43;;;;;;;959.93;40.33;;;;;-2.20;94864.00;;;;7401452;19;20151;-74
2023/01/23 00:37:12;;;;;;;844.03;39.83;;;;;-2.20;94860.00;;;;7401415;19;20587;-74
2023/01/23 00:39:49;;;;;;;737.67;33.87;;;;;-2.30;94861.00;;;;7400230;19;20598;-74
2023/01/23 00:42:17;;;;;;;660.87;33.37;;;;;-2.30;94856.00;;;;7401948;19;20133;-74
2023/01/23 00:44:51;;;;;;;728.93;36.87;;;;;-2.40;94861.00;;;;7399119;19;20138;-74
2023/01/23 00:47:18;;;;;;;436.90;24.60;;;;;-2.30;94868.00;;;;7399990;19;20177;-74
2023/01/23 00:49:56;;;;;;;409.73;23.17;;;;;-2.30;94872.00;;;;7399786;19;20154;-73
2023/01/23 00:52:30;;;;;;;453.20;25.07;;;;;-2.40;94870.00;;;;7400331;19;20128;-74
2023/01/23 00:54:57;;;;;;;949.30;45.50;;;;;-2.30;94866.00;;;;7400390;19;20127;-74
2023/01/23 00:57:31;;;;;;;730.10;35.73;;;;;-2.40;94867.00;;;;7400388;19;20144;-74
2023/01/23 01:00:06;;;;;;;538.33;29.73;;;;;-2.30;94869.00;;;;7399150;19;20152;-74
2023/01/23 01:02:34;;;;;;;917.20;42.07;;;;;-2.20;94870.00;;;;7398596;19;20162;-74
2023/01/23 01:05:17;;;;;;;1326.47;53.77;;;;;-2.20;94873.00;;;;7399539;19;20608;-74
2023/01/23 01:07:51;;;;;;;1173.83;49.73;;;;;-2.30;94880.00;;;;7399238;19;20144;-74
2023/01/23 01:10:29;;;;;;;1355.37;56.40;;;;;-2.30;94875.00;;;;7398310;19;20137;-74
2023/01/23 01:13:03;;;;;;;1128.30;49.47;;;;;-2.30;94873.00;;;;7400346;19;20188;-74
2023/01/23 01:15:37;;;;;;;882.70;35.80;;;;;-2.40;94877.00;;;;7399126;19;20595;-73
2023/01/23 01:18:05;;;;;;;878.73;40.40;;;;;-2.40;94878.00;;;;7400524;19;20188;-74
2023/01/23 01:20:41;;;;;;;921.90;40.73;;;;;-2.30;94875.00;;;;7399985;19;20590;-74
2023/01/23 01:23:17;;;;;;;877.77;39.60;;;;;-2.40;94880.00;;;;7398132;19;20642;-74
2023/01/23 01:25:45;;;;;;;734.77;35.67;;;;;-2.40;94880.00;;;;7398734;19;20159;-74
2023/01/23 01:28:19;;;;;;;627.33;30.83;;;;;-2.30;94873.00;;;;7398850;19;20591;-74
2023/01/23 01:30:47;;;;;;;1013.97;42.37;;;;;-2.40;94885.00;;;;7399733;19;20492;-74
2023/01/23 01:33:24;;;;;;;1236.13;51.77;;;;;-2.40;94892.00;;;;7399850;19;20154;-74
2023/01/23 01:35:52;;;;;;;672.63;35.23;;;;;-2.40;94898.00;;;;7399944;19;20140;-74
2023/01/23 01:38:26;;;;;;;750.27;35.30;;;;;-2.40;94893.00;;;;7399267;19;20127;-74
2023/01/23 01:40:56;;;;;;;356.10;23.07;;;;;-2.40;94899.00;;;;7400342;19;20155;-75
2023/01/23 01:43:25;;;;;;;604.47;32.97;;;;;-2.30;94895.00;;;;7398765;19;20173;-74
2023/01/23 01:46:11;;;;;;;160.97;16.67;;;;;-2.40;94888.00;;;;7398899;19;20575;-74
2023/01/23 01:48:48;;;;;;;84.90;13.20;;;;;-2.40;94897.00;;;;7398739;19;20137;-74
2023/01/23 01:51:52;;;;;;;484.73;27.73;;;;;-2.50;94895.00;;;;7394781;19;20132;-74
2023/01/23 01:54:39;;;;;;;218.67;19.90;;;;;-2.50;94903.00;;;;7395961;19;20157;-73
2023/01/23 01:57:36;;;;;;;51.37;12.97;;;;;-2.60;94900.00;;;;7397599;19;20150;-74
2023/01/23 02:00:15;;;;;;;163.73;18.97;;;;;-2.50;94899.00;;;;7396931;19;20140;-72
2023/01/23 02:02:57;;;;;;;287.97;20.53;;;;;-2.60;94905.00;;;;7389281;19;20188;-87
2023/01/23 02:05:41;;;;;;;176.67;19.13;;;;;-2.60;94908.00;;;;7397887;19;20202;-86
2023/01/23 02:08:27;;;;;;;293.50;21.93;;;;;-2.50;94915.00;;;;7398012;19;20140;-87
2023/01/23 02:11:02;;;;;;;227.33;19.17;;;;;-2.50;94917.00;;;;7397835;19;20591;-86
2023/01/23 02:13:38;;;;;;;250.40;19.73;;;;;-2.50;94918.00;;;;7397090;19;20144;-86
2023/01/23 02:16:09;;;;;;;388.37;26.47;;;;;-2.40;94913.00;;;;7396911;19;20141;-86
2023/01/23 02:18:46;;;;;;;355.97;25.10;;;;;-2.30;94911.00;;;;7399523;19;20135;-86
2023/01/23 02:21:23;;;;;;;310.77;21.53;;;;;-2.50;94919.00;;;;7399562;19;20124;-87
2023/01/23 02:24:22;;;;;;;269.10;20.40;;;;;-2.50;94908.00;;;;7396492;19;20156;-86
2023/01/23 02:26:49;;;;;;;305.80;21.83;;;;;-2.50;94913.00;;;;7397539;19;20185;-86
2023/01/23 02:29:40;;;;;;;594.43;31.13;;;;;-2.40;94926.00;;;;7396700;19;20537;-86
2023/01/23 02:32:14;;;;;;;284.40;20.57;;;;;-2.30;94925.00;;;;7397036;19;20140;-86
2023/01/23 02:34:42;;;;;;;275.70;19.90;;;;;-2.50;94918.00;;;;7397289;19;20628;-87
2023/01/23 02:37:17;;;;;;;511.30;27.23;;;;;-2.40;94926.00;;;;7397489;19;20140;-87
2023/01/23 02:39:45;;;;;;;557.77;28.93;;;;;-2.30;94916.00;;;;7397217;19;20147;-87
2023/01/23 02:42:21;;;;;;;319.27;21.23;;;;;-2.40;94914.00;;;;7397493;19;20163;-86
2023/01/23 02:44:52;;;;;;;942.63;44.17;;;;;-2.50;94906.00;;;;7397600;19;20488;-86
2023/01/23 02:47:26;;;;;;;616.17;33.43;;;;;-2.50;94909.00;;;;7398023;19;20472;-86
2023/01/23 02:50:00;;;;;;;989.77;45.70;;;;;-2.40;94915.00;;;;7397108;19;20125;-86
2023/01/23 02:52:34;;;;;;;919.57;43.67;;;;;-2.40;94903.00;;;;7396611;19;20197;-86
2023/01/23 02:55:08;;;;;;;571.60;32.07;;;;;-2.40;94910.00;;;;7396134;19;20143;-86
2023/01/23 02:57:44;;;;;;;702.77;36.37;;;;;-2.40;94906.00;;;;7399259;19;20133;-86
2023/01/23 03:00:15;;;;;;;635.30;31.00;;;;;-2.40;94900.00;;;;7396630;19;20214;-85
2023/01/23 03:02:57;;;;;;;464.00;27.03;;;;;-2.40;94894.00;;;;7399305;19;20642;-86
2023/01/23 03:05:24;;;;;;;496.73;26.73;;;;;-2.40;94901.00;;;;7404338;19;20609;-86
2023/01/23 03:07:58;;;;;;;1006.60;45.37;;;;;-2.40;94910.00;;;;7403647;19;20137;-87
2023/01/23 03:10:29;;;;;;;1037.63;45.90;;;;;-2.50;94901.00;;;;7403365;19;20188;-86
2023/01/23 03:13:06;;;;;;;1014.27;46.17;;;;;-2.50;94909.00;;;;7405566;19;20132;-87
2023/01/23 03:15:37;;;;;;;916.67;40.60;;;;;-2.40;94910.00;;;;7405640;19;20129;-86
2023/01/23 03:18:11;;;;;;;1099.77;47.43;;;;;-2.50;94910.00;;;;7403925;19;20156;-87
2023/01/23 03:20:40;;;;;;;1014.67;44.83;;;;;-2.50;94911.00;;;;7403667;19;20165;-86
2023/01/23 03:23:15;;;;;;;712.27;33.73;;;;;-2.40;94906.00;;;;7403946;19;20151;-86
2023/01/23 03:25:43;;;;;;;972.63;42.23;;;;;-2.40;94911.00;;;;7405592;19;20302;-87
2023/01/23 03:31:12;;;;;;;789.07;39.77;;;;;-2.50;94919.00;;;;7405328;19;20125;-86
2023/01/23 03:33:47;;;;;;;1072.93;46.03;;;;;-2.40;94915.00;;;;7402055;19;20156;-86
2023/01/23 03:36:21;;;;;;;1215.50;50.97;;;;;-2.50;94906.00;;;;7403079;19;20204;-86
2023/01/23 03:41:44;;;;;;;1230.77;52.20;;;;;-2.40;94906.00;;;;7402772;19;20133;-87
2023/01/23 03:44:19;;;;;;;1166.30;50.07;;;;;-2.40;94902.00;;;;7401912;19;20634;-88
2023/01/23 03:46:53;;;;;;;1120.80;48.73;;;;;-2.40;94898.00;;;;7401895;19;20141;-86
2023/01/23 03:49:27;;;;;;;1176.07;48.30;;;;;-2.40;94903.00;;;;7401227;19;20146;-87
2023/01/23 03:51:54;;;;;;;1245.67;52.57;;;;;-2.50;94892.00;;;;7403946;19;20140;-87
2023/01/23 03:54:34;;;;;;;1126.93;50.43;;;;;-2.40;94893.00;;;;7402235;19;20156;-86
2023/01/23 03:57:02;;;;;;;967.00;40.53;;;;;-2.40;94904.00;;;;7404098;19;20132;-87
2023/01/23 03:59:36;;;;;;;1195.07;50.47;;;;;-2.40;94890.00;;;;7403017;19;20143;-87
2023/01/23 04:02:03;;;;;;;1093.43;45.73;;;;;-2.40;94892.00;;;;7400611;19;20172;-86
2023/01/23 04:04:44;;;;;;;1245.37;50.70;;;;;-2.40;94899.00;;;;7400598;19;20179;-86
2023/01/23 04:07:11;;;;;;;1256.63;51.63;;;;;-2.40;94904.00;;;;7401750;19;20199;-86
2023/01/23 04:09:51;;;;;;;1411.57;55.67;;;;;-2.30;94897.00;;;;7400010;19;20204;-86
2023/01/23 04:12:25;;;;;;;1061.40;48.60;;;;;-2.30;94904.00;;;;7401850;19;20152;-86
2023/01/23 04:14:59;;;;;;;1192.10;50.70;;;;;-2.30;94912.00;;;;7401234;19;20132;-86
2023/01/23 04:17:33;;;;;;;1064.50;50.67;;;;;-2.30;94927.00;;;;7402031;19;20190;-86
2023/01/23 04:20:15;;;;;;;869.10;41.00;;;;;-2.30;94929.00;;;;7401226;19;20196;-86
2023/01/23 04:22:43;;;;;;;646.30;33.40;;;;;-2.30;94923.00;;;;7401522;19;20171;-86
2023/01/23 04:25:17;;;;;;;980.17;47.67;;;;;-2.40;94919.00;;;;7401752;19;20164;-87
2023/01/23 04:27:51;;;;;;;883.77;41.67;;;;;-2.30;94927.00;;;;7401229;19;20162;-85
2023/01/23 04:30:21;;;;;;;988.83;44.03;;;;;-2.30;94931.00;;;;7398986;19;20165;-86
2023/01/23 04:32:55;;;;;;;916.50;41.83;;;;;-2.20;94937.00;;;;7403213;19;20729;-86
2023/01/23 04:35:22;;;;;;;893.80;43.60;;;;;-2.20;94932.00;;;;7401092;19;20611;-86
2023/01/23 04:37:50;;;;;;;551.30;30.03;;;;;-2.30;94937.00;;;;7400301;19;20193;-86
2023/01/23 04:40:24;;;;;;;789.20;42.10;;;;;-2.30;94942.00;;;;7401590;19;20132;-85
2023/01/23 04:42:51;;;;;;;1019.90;49.33;;;;;-2.20;94948.00;;;;7402039;19;20192;-85
2023/01/23 04:45:25;;;;;;;903.97;42.70;;;;;-2.20;94948.00;;;;7401146;19;20160;-86
2023/01/23 04:47:53;;;;;;;626.03;32.23;;;;;-2.20;94950.00;;;;7401230;19;20139;-85
2023/01/23 04:50:27;;;;;;;349.97;24.60;;;;;-2.20;94948.00;;;;7399461;19;20220;-86
2023/01/23 04:53:02;;;;;;;627.27;36.00;;;;;-2.30;94953.00;;;;7401347;19;20139;-86
2023/01/23 04:55:36;;;;;;;523.53;32.73;;;;;-2.30;94951.00;;;;7401395;19;20124;-86
2023/01/23 04:58:12;;;;;;;544.33;33.93;;;;;-2.30;94945.00;;;;7401710;19;20141;-85
2023/01/23 05:00:46;;;;;;;157.37;20.87;;;;;-2.30;94951.00;;;;7400357;19;20618;-86
2023/01/23 05:03:28;;;;;;;584.17;34.33;;;;;-2.20;94957.00;;;;7398572;19;20638;-86
2023/01/23 05:05:55;;;;;;;541.37;35.07;;;;;-2.20;94939.00;;;;7400389;19;20137;-85
2023/01/23 05:08:29;;;;;;;635.27;38.13;;;;;-2.30;94946.00;;;;7400489;19;20481;-87
2023/01/23 05:10:56;;;;;;;763.33;43.57;;;;;-2.30;94951.00;;;;7398918;19;20156;-86
2023/01/23 05:13:32;;;;;;;628.37;35.97;;;;;-2.20;94948.00;;;;7400265;19;20611;-86
2023/01/23 05:16:01;;;;;;;471.53;32.80;;;;;-2.20;94956.00;;;;7400394;19;20125;-86
2023/01/23 05:18:35;;;;;;;656.50;36.37;;;;;-2.30;94950.00;;;;7400176;19;20605;-85
2023/01/23 05:21:03;;;;;;;414.43;30.90;;;;;-2.40;94950.00;;;;7400224;19;20446;-86
2023/01/23 05:23:37;;;;;;;587.47;33.70;;;;;-2.30;94945.00;;;;7401508;19;20456;-86
2023/01/23 05:26:04;;;;;;;803.53;43.53;;;;;-2.40;94951.00;;;;7401110;19;20129;-87
2023/01/23 05:28:38;;;;;;;931.13;41.97;;;;;-2.50;94949.00;;;;7400434;19;20141;-87
2023/01/23 05:31:12;;;;;;;909.47;44.27;;;;;-2.40;94954.00;;;;7400123;19;20607;-87
2023/01/23 05:33:40;;;;;;;1063.27;49.03;;;;;-2.50;94959.00;;;;7399287;19;20136;-86
2023/01/23 05:36:14;;;;;;;601.73;35.30;;;;;-2.50;94959.00;;;;7400121;19;20163;-87
2023/01/23 05:38:48;;;;;;;651.97;37.27;;;;;-2.40;94963.00;;;;7400107;19;20595;-87
2023/01/23 05:41:21;;;;;;;796.17;42.03;;;;;-2.40;94956.00;;;;7399016;19;20173;-87
2023/01/23 05:43:55;;;;;;;638.10;34.77;;;;;-2.30;94972.00;;;;7399927;19;20600;-87
2023/01/23 05:46:52;;;;;;;997.87;52.97;;;;;-2.50;94957.00;;;;7399753;19;20139;-87
2023/01/23 05:49:27;;;;;;;497.97;31.67;;;;;-2.50;94967.00;;;;7399286;19;20168;-87
2023/01/23 05:51:54;;;;;;;306.30;26.43;;;;;-2.40;94957.00;;;;7400950;19;20536;-87
2023/01/23 05:54:44;;;;;;;530.23;32.00;;;;;-2.30;94951.00;;;;7397800;19;20157;-87
2023/01/23 05:57:18;;;;;;;902.17;44.13;;;;;-2.40;94957.00;;;;7398447;19;20165;-87
2023/01/23 05:59:52;;;;;;;688.00;43.33;;;;;-2.40;94956.00;;;;7399872;19;20125;-87
2023/01/23 06:02:21;;;;;;;334.10;25.73;;;;;-2.40;94953.00;;;;7396535;19;20595;-86
2023/01/23 06:05:02;;;;;;;961.70;51.37;;;;;-2.40;94953.00;;;;7395390;19;20239;-88
2023/01/23 06:07:29;;;;;;;461.03;32.33;;;;;-2.40;94961.00;;;;7400145;19;20690;-87
2023/01/23 06:10:04;;;;;;;299.40;25.67;;;;;-2.30;94961.00;;;;7397953;19;20140;-87
2023/01/23 06:12:41;;;;;;;409.97;29.47;;;;;-2.40;94958.00;;;;7396925;19;20140;-87
2023/01/23 06:15:15;;;;;;;802.43;45.43;;;;;-2.30;94954.00;;;;7398986;19;20135;-86
2023/01/23 06:17:43;;;;;;;190.17;21.93;;;;;-2.50;94958.00;;;;7398468;19;20579;-87
2023/01/23 06:20:17;;;;;;;982.23;54.17;;;;;-2.50;94951.00;;;;7402735;19;20142;-87
2023/01/23 06:22:54;;;;;;;133.93;19.97;;;;;-2.40;94966.00;;;;7400168;19;20132;-87
2023/01/23 06:25:28;;;;;;;261.30;26.10;;;;;-2.40;94961.00;;;;7401123;19;20148;-87
2023/01/23 06:27:57;;;;;;;44.63;17.90;;;;;-2.20;94973.00;;;;7401290;19;20141;-87
2023/01/23 06:30:31;;;;;;;252.57;26.27;;;;;-2.30;94972.00;;;;7400529;19;20222;-86
2023/01/23 06:33:00;;;;;;;155.00;21.70;;;;;-2.30;94975.00;;;;7402435;19;20164;-86
2023/01/23 06:35:34;;;;;;;320.07;28.53;;;;;-2.30;94981.00;;;;7401128;19;20608;-86
2023/01/23 06:38:08;;;;;;;290.73;26.03;;;;;-2.40;94986.00;;;;7407953;19;20152;-86
2023/01/23 06:40:36;;;;;;;648.43;40.23;;;;;-2.30;94988.00;;;;7410023;19;20475;-86
2023/01/23 06:43:10;;;;;;;235.17;24.57;;;;;-2.30;94993.00;;;;7411553;19;20579;-86
2023/01/23 06:45:46;;;;;;;54.63;19.17;;;;;-2.30;94997.00;;;;7412410;19;20211;-87
2023/01/23 06:48:13;;;;;;;238.33;24.90;;;;;-2.40;94995.00;;;;7416662;19;20125;-87
2023/01/23 06:50:47;;;;;;;73.57;19.13;;;;;-2.50;95010.00;;;;7415297;19;20583;-86
2023/01/23 06:53:16;;;;;;;90.47;20.57;;;;;-2.40;95001.00;;;;7422437;19;20492;-86
2023/01/23 06:55:46;;;;;;;42.43;17.97;;;;;-2.40;95014.00;;;;7428190;19;20144;-86
2023/01/23 06:58:20;;;;;;;35.67;17.07;;;;;-2.40;95004.00;;;;7427126;19;20153;-84
2023/01/23 07:00:48;;;;;;;41.13;17.57;;;;;-2.40;95017.00;;;;7427591;19;20148;-86
2023/01/23 07:03:29;;;;;;;44.67;18.30;;;;;-2.40;95014.00;;;;7423131;19;20637;-86
2023/01/23 07:05:56;;;;;;;34.50;16.80;;;;;-2.50;95022.00;;;;7426134;19;20143;-87
2023/01/23 07:08:35;;;;;;;32.70;16.43;;;;;-2.40;95030.00;;;;7425334;19;20152;-86
2023/01/23 07:11:10;;;;;;;35.67;17.63;;;;;-2.40;95028.00;;;;7421444;19;20172;-86
2023/01/23 07:13:44;;;;;;;52.57;18.53;;;;;-2.40;95025.00;;;;7426907;19;20485;-86
2023/01/23 07:16:17;;;;;;;83.20;20.87;;;;;-2.30;95028.00;;;;7427395;19;20145;-85
2023/01/23 07:18:57;;;;;;;53.23;18.23;;;;;-2.40;95028.00;;;;7426929;19;20616;-86
2023/01/23 07:21:25;;;;;;;36.27;16.67;;;;;-2.30;95035.00;;;;7421696;19;20147;-86
2023/01/23 07:23:59;;;;;;;36.63;17.93;;;;;-2.30;95045.00;;;;7422941;19;20136;-86
2023/01/23 07:26:27;;;;;;;38.37;17.17;;;;;-2.30;95035.00;;;;7427268;19;20124;-86
2023/01/23 07:29:01;;;;;;;34.63;16.27;;;;;-2.30;95043.00;;;;7424971;19;20156;-85
2023/01/23 07:31:36;;;;;;;74.90;18.17;;;;;-2.40;95041.00;;;;7419438;19;20137;-83
2023/01/23 07:34:11;;;;;;;228.10;23.27;;;;;-2.30;95046.00;;;;7406908;19;20184;-83
2023/01/23 07:36:45;;;;;;;151.23;22.00;;;;;-2.40;95037.00;;;;7405318;19;20156;-83
2023/01/23 07:39:19;;;;;;;232.97;23.33;;;;;-2.30;95041.00;;;;7406987;19;20185;-87
2023/01/23 07:41:48;;;;;;;89.57;19.37;;;;;-2.40;95041.00;;;;7413569;19;20132;-86
2023/01/23 07:44:23;;;;;;;50.53;19.23;;;;;-2.30;95045.00;;;;7413212;19;20133;-84
2023/01/23 07:46:51;;;;;;;159.80;22.57;;;;;-2.20;95049.00;;;;7414974;19;20133;-86
2023/01/23 07:49:32;;;;;;;189.70;23.93;;;;;-2.20;95037.00;;;;7413296;19;20156;-86
2023/01/23 07:52:00;;;;;;;112.30;19.90;;;;;-2.20;95044.00;;;;7413856;19;20540;-85
2023/01/23 07:54:34;;;;;;;243.50;27.77;;;;;-2.10;95050.00;;;;7414370;19;20151;-86
2023/01/23 07:57:07;;;;;;;132.87;20.27;;;;;-2.20;95050.00;;;;7411476;19;20635;-86
2023/01/23 07:59:42;;;;;;;329.67;29.50;;;;;-2.20;95044.00;;;;7411268;19;20176;-86
2023/01/23 08:02:31;;;;;;;634.07;41.17;;;;;-2.40;95053.00;;;;7406728;19;20175;-87
2023/01/23 08:05:18;;;;;;;413.40;32.80;;;;;-2.20;95039.00;;;;7410366;19;20164;-86
2023/01/23 08:07:56;;;;;;;396.00;31.57;;;;;-2.30;95049.00;;;;7412897;19;20157;-87
2023/01/23 08:10:38;;;;;;;431.93;35.53;;;;;-2.10;95040.00;;;;7413052;19;20154;-86
2023/01/23 08:13:12;;;;;;;310.10;27.17;;;;;-2.10;95041.00;;;;7410188;19;20129;-86
2023/01/23 08:15:46;;;;;;;340.77;29.63;;;;;-2.10;95041.00;;;;7412919;19;20177;-87
2023/01/23 08:18:20;;;;;;;456.57;32.13;;;;;-2.20;95043.00;;;;7411799;19;20184;-87
2023/01/23 08:20:57;;;;;;;1080.60;56.27;;;;;-2.10;95040.00;;;;7410929;19;20141;-83
2023/01/23 08:23:33;;;;;;;495.27;34.87;;;;;-2.00;95043.00;;;;7407053;19;20121;-85
2023/01/23 08:26:08;;;;;;;316.20;27.33;;;;;-2.00;95047.00;;;;7410430;19;20490;-87
2023/01/23 08:28:43;;;;;;;954.97;55.27;;;;;-1.90;95049.00;;;;7415265;19;20144;-87
2023/01/23 08:31:18;;;;;;;205.30;24.20;;;;;-1.90;95042.00;;;;7408192;19;20160;-88
2023/01/23 08:33:54;;;;;;;489.43;34.47;;;;;-2.00;95048.00;;;;7407957;19;20126;-88
2023/01/23 08:36:23;;;;;;;239.43;25.37;;;;;-2.10;95047.00;;;;7411489;19;20144;-87
2023/01/23 08:39:03;;;;;;;100.50;21.10;;;;;-2.00;95043.00;;;;7413730;19;20124;-88
2023/01/23 08:41:45;;;;;;;111.37;21.37;;;;;-2.10;95052.00;;;;7410211;19;20472;-87
2023/01/23 08:44:13;;;;;;;38.13;15.47;;;;;-2.30;95033.00;;;;7410618;19;20150;-87
2023/01/23 08:46:47;;;;;;;39.27;17.27;;;;;-2.10;95032.00;;;;7410242;19;20166;-87
2023/01/23 08:49:21;;;;;;;39.63;18.23;;;;;-1.80;95037.00;;;;7410055;19;20145;-87
2023/01/23 08:51:50;;;;;;;54.57;20.77;;;;;-1.70;95039.00;;;;7410971;19;20177;-87
2023/01/23 08:54:27;;;;;;;43.77;19.53;;;;;-1.80;95033.00;;;;7415085;19;20132;-87
2023/01/23 08:57:08;;;;;;;44.83;21.00;;;;;-1.90;95037.00;;;;7413165;19;20618;-87
2023/01/23 08:59:45;;;;;;;41.80;20.03;;;;;-1.80;95028.00;;;;7411455;19;20128;-87
2023/01/23 09:02:20;;;;;;;32.97;17.67;;;;;-1.80;95033.00;;;;7414165;19;20161;-87
2023/01/23 09:05:05;;;;;;;40.87;18.70;;;;;-1.80;95033.00;;;;7410100;19;20151;-87
2023/01/23 09:07:47;;;;;;;36.47;18.43;;;;;-1.80;95032.00;;;;7413736;19;20215;-87
2023/01/23 09:10:16;;;;;;;39.67;19.33;;;;;-1.70;95033.00;;;;7414281;19;20143;-86
2023/01/23 09:12:52;;;;;;;35.23;17.27;;;;;-2.00;95044.00;;;;7407694;19;20152;-87
2023/01/23 09:15:23;;;;;;;37.87;18.53;;;;;-2.00;95044.00;;;;7408361;19;20149;-88
2023/01/23 09:17:59;;;;;;;36.67;17.47;;;;;-1.90;95046.00;;;;7407625;19;20455;-87
2023/01/23 09:20:37;;;;;;;36.13;17.53;;;;;-1.70;95049.00;;;;7407397;19;20206;-87
2023/01/23 09:23:05;;;;;;;32.33;16.40;;;;;-1.60;95047.00;;;;7409439;19;20575;-88
2023/01/23 09:25:39;;;;;;;36.33;17.47;;;;;-1.80;95060.00;;;;7410875;19;20152;-87
2023/01/23 09:28:20;;;;;;;33.10;17.00;;;;;-1.80;95055.00;;;;7412916;19;20256;-87
2023/01/23 09:31:03;;;;;;;39.47;17.47;;;;;-1.20;95031.00;;;;7412288;19;20651;-87
2023/01/23 09:33:32;;;;;;;30.07;16.20;;;;;-1.20;95041.00;;;;7409724;19;20158;-88
2023/01/23 09:36:07;;;;;;;29.13;15.90;;;;;-1.10;95027.00;;;;7408428;19;20140;-87
2023/01/23 09:38:35;;;;;;;35.13;16.07;;;;;-0.80;95025.00;;;;7411074;19;20133;-87
2023/01/23 09:41:14;;;;;;;33.00;16.67;;;;;-0.80;95020.00;;;;7413657;19;20144;-86
2023/01/23 09:48:15;;;;;;;29.83;15.00;;;;;-0.90;95059.00;;;;7409074;19;20502;-87
2023/01/23 09:55:35;;;;;;;30.57;14.73;;;;;-0.80;95040.00;;;;7399831;19;20149;-89
2023/01/23 09:58:18;;;;;;;25.63;13.20;;;;;-1.10;95033.00;;;;7401648;19;20501;-88
2023/01/23 10:00:55;;;;;;;25.63;12.90;;;;;-1.40;95028.00;;;;7401254;19;20181;-87
2023/01/23 10:03:28;;;;;;;21.50;11.57;;;;;-1.30;95037.00;;;;7401959;19;20149;-88
2023/01/23 10:06:24;;;;;;;24.00;12.00;;;;;-0.90;95032.00;;;;7402223;19;20137;-87
2023/01/23 10:09:20;;;;;;;25.17;11.63;;;;;-1.20;95024.00;;;;7398533;19;20161;-86
2023/01/23 10:12:12;;;;;;;20.57;11.90;;;;;-0.80;95020.00;;;;7397673;19;20619;-87
2023/01/23 10:15:01;;;;;;;18.00;11.77;;;;;-0.90;95036.00;;;;7402304;19;20427;-87
2023/01/23 10:17:54;;;;;;;22.63;12.17;;;;;-1.30;95045.00;;;;7404162;19;20160;-86
2023/01/23 10:20:52;;;;;;;24.20;12.33;;;;;-1.60;95048.00;;;;7401733;19;20165;-87
2023/01/23 10:23:56;;;;;;;17.33;10.40;;;;;-1.80;95047.00;;;;7400040;19;20141;-87
2023/01/23 10:26:39;;;;;;;18.30;10.47;;;;;-1.70;95063.00;;;;7403085;19;20159;-86
2023/01/23 10:29:48;;;;;;;20.20;11.00;;;;;-1.70;95065.00;;;;7405635;19;20148;-87
2023/01/23 10:32:26;;;;;;;22.80;12.40;;;;;-1.60;95055.00;;;;7406470;19;20468;-86
2023/01/23 10:35:16;;;;;;;23.23;12.90;;;;;-1.70;95054.00;;;;7405103;19;20148;-87
2023/01/23 10:38:02;;;;;;;22.27;11.60;;;;;-1.80;95048.00;;;;7405081;19;20220;-87
2023/01/23 10:43:30;;;;;;;21.00;11.40;;;;;-2.00;95059.00;;;;7404296;19;20141;-88
2023/01/23 10:46:08;;;;;;;21.90;11.53;;;;;-1.80;95051.00;;;;7407384;19;20181;-87
2023/01/23 10:48:48;;;;;;;21.50;11.47;;;;;-1.70;95040.00;;;;7406022;19;20477;-87
2023/01/23 10:51:23;;;;;;;20.20;10.63;;;;;-1.80;95042.00;;;;7402824;19;20167;-88
2023/01/23 10:54:18;;;;;;;21.23;12.50;;;;;-1.40;95022.00;;;;7407013;19;20152;-87
2023/01/23 10:57:23;;;;;;;16.20;9.80;;;;;-1.50;95024.00;;;;7402810;19;20184;-86
2023/01/23 11:00:07;;;;;;;18.20;10.00;;;;;-1.20;95025.00;;;;7405304;19;20152;-86
2023/01/23 11:02:39;;;;;;;19.80;11.03;;;;;-1.00;95029.00;;;;7401357;19;20580;-85
2023/01/23 11:05:44;;;;;;;17.23;10.93;;;;;-0.90;95032.00;;;;7400554;19;20168;-86
2023/01/23 11:08:52;;;;;;;20.47;10.80;;;;;-1.10;95027.00;;;;7403358;19;20152;-85
2023/01/23 11:11:32;;;;;;;19.67;10.47;;;;;-1.40;95039.00;;;;7399437;19;20137;-86
2023/01/23 11:14:21;;;;;;;19.27;10.70;;;;;-1.00;95026.00;;;;7401789;19;20472;-84
2023/01/23 11:17:17;;;;;;;19.53;11.10;;;;;-0.90;95035.00;;;;7399462;19;20156;-85
2023/01/23 11:19:49;;;;;;;18.47;10.77;;;;;-0.50;95030.00;;;;7402113;19;20157;-85
2023/01/23 11:22:35;;;;;;;18.17;11.13;;;;;-0.70;95032.00;;;;7402199;19;20157;-85
2023/01/23 11:25:33;;;;;;;17.30;11.40;;;;;-1.30;95044.00;;;;7404021;19;20160;-85
2023/01/23 11:28:36;;;;;;;18.40;11.07;;;;;-1.80;95035.00;;;;7406786;19;20192;-86
2023/01/23 11:31:40;;;;;;;17.87;10.70;;;;;-1.70;95015.00;;;;7405397;19;20487;-86
2023/01/23 11:34:17;;;;;;;19.40;11.10;;;;;-1.60;95017.00;;;;7409733;19;20129;-86
2023/01/23 11:37:09;;;;;;;20.57;11.00;;;;;-1.00;95015.00;;;;7409627;19;20148;-85
2023/01/23 11:39:41;;;;;;;20.60;11.77;;;;;-1.10;95012.00;;;;7410796;19;20157;-86
2023/01/23 11:42:16;;;;;;;19.23;11.30;;;;;-1.10;95006.00;;;;7406722;19;20125;-85
2023/01/23 11:44:49;;;;;;;18.07;10.33;;;;;-1.50;95000.00;;;;7409675;19;20132;-85
2023/01/23 11:47:54;;;;;;;22.30;13.00;;;;;-1.30;95001.00;;;;7408647;19;20157;-86
2023/01/23 11:50:50;;;;;;;22.93;12.27;;;;;-1.00;95005.00;;;;7412022;19;20520;-85
2023/01/23 11:53:59;;;;;;;19.67;11.90;;;;;-1.00;95003.00;;;;7410729;19;20460;-85
2023/01/23 11:57:03;;;;;;;23.17;12.80;;;;;-0.90;95008.00;;;;7408165;19;20131;-85
2023/01/23 11:59:44;;;;;;;24.17;12.27;;;;;-1.00;95000.00;;;;7407686;19;20516;-86
2023/01/23 12:02:46;;;;;;;25.43;13.27;;;;;-1.10;94996.00;;;;7409268;19;20520;-85
2023/01/23 12:05:39;;;;;;;21.43;11.70;;;;;-0.90;95001.00;;;;7406832;19;20165;-85
2023/01/23 12:08:32;;;;;;;23.73;13.10;;;;;-1.00;95004.00;;;;7408878;19;20192;-85
2023/01/23 12:11:19;;;;;;;28.40;14.50;;;;;-1.10;94992.00;;;;7409806;19;20568;-86
2023/01/23 12:14:03;;;;;;;24.87;14.10;;;;;-0.80;94995.00;;;;7407038;19;20505;-85
2023/01/23 12:17:07;;;;;;;23.23;13.37;;;;;-0.50;94985.00;;;;7412082;19;20121;-85
2023/01/23 12:19:52;;;;;;;24.40;12.10;;;;;-0.90;94990.00;;;;7430020;19;20162;-85
2023/01/23 12:22:46;;;;;;;24.00;12.47;;;;;-0.70;94984.00;;;;7425628;19;20128;-84
2023/01/23 12:25:33;;;;;;;18.83;12.10;;;;;-1.00;94981.00;;;;7429146;19;20144;-85
2023/01/23 12:28:38;;;;;;;24.00;13.53;;;;;-0.70;94974.00;;;;7428039;19;20129;-85
2023/01/23 12:31:15;;;;;;;21.00;12.27;;;;;-0.70;94973.00;;;;7426093;19;20471;-85
2023/01/23 12:34:00;;;;;;;23.63;12.13;;;;;-0.60;94983.00;;;;7428547;19;20137;-87
2023/01/23 12:37:01;;;;;;;21.00;11.73;;;;;-0.60;94986.00;;;;7426332;19;20189;-85
2023/01/23 12:40:21;;;;;;;20.67;11.13;;;;;-0.50;94977.00;;;;7426826;19;20181;-85
2023/01/23 12:43:03;;;;;;;21.43;11.73;;;;;-0.90;94976.00;;;;7423713;19;20137;-86
2023/01/23 12:45:53;;;;;;;22.33;13.13;;;;;-1.20;94970.00;;;;7423560;19;20133;-86
2023/01/23 12:48:46;;;;;;;20.73;11.83;;;;;-1.30;94977.00;;;;7406642;19;20153;-86
2023/01/23 12:51:29;;;;;;;20.73;11.40;;;;;-1.30;94969.00;;;;7403969;19;20675;-85
2023/01/23 12:54:11;;;;;;;20.77;11.50;;;;;-1.20;94969.00;;;;7406916;19;20139;-86
2023/01/23 12:56:40;;;;;;;23.23;12.53;;;;;-1.20;94966.00;;;;7406537;19;20152;-87
2023/01/23 13:00:00;;;;;;;25.97;12.50;;;;;-1.30;94956.00;;;;7408106;19;20148;-86
2023/01/23 13:03:10;;;;;;;20.90;12.37;;;;;-1.20;94956.00;;;;7406886;19;20205;-87